createdAt,value
2022-09-28T00:00:53.449Z,59.53
2022-09-28T00:01:53.562Z,59.74
2022-09-28T00:02:53.504Z,59.60
2022-09-28T00:03:53.436Z,58.67
2022-09-28T00:04:53.473Z,58.67
2022-09-28T00:05:53.453Z,59.34
2022-09-28T00:06:53.457Z,59.44
2022-09-28T00:08:53.439Z,59.04
2022-09-28T00:09:53.469Z,58.84
2022-09-28T00:11:53.493Z,59.75
2022-09-28T00:12:53.465Z,59.75
2022-09-28T00:13:53.456Z,59.61
2022-09-28T00:14:53.468Z,59.52
2022-09-28T00:15:53.479Z,58.98
2022-09-28T00:16:53.488Z,58.99
2022-09-28T00:18:53.511Z,59.25
2022-09-28T00:19:53.478Z,59.42
2022-09-28T00:20:53.490Z,59.16
2022-09-28T00:21:53.470Z,59.52
2022-09-28T00:22:53.478Z,59.05
2022-09-28T00:23:53.532Z,59.01
2022-09-28T00:25:53.542Z,58.85
2022-09-28T00:26:53.496Z,58.85
2022-09-28T00:27:53.499Z,58.28
2022-09-28T00:28:53.499Z,57.57
2022-09-28T00:29:53.537Z,57.93
2022-09-28T00:31:53.621Z,58.33
2022-09-28T00:33:53.534Z,58.25
2022-09-28T00:34:53.522Z,58.29
2022-09-28T00:35:53.559Z,58.13
2022-09-28T00:36:53.564Z,58.10
2022-09-28T00:37:53.561Z,58.08
2022-09-28T00:38:53.572Z,57.71
2022-09-28T00:39:53.541Z,57.71
2022-09-28T00:40:53.643Z,56.93
2022-09-28T00:41:53.540Z,56.93
2022-09-28T00:42:53.574Z,57.22
2022-09-28T00:43:53.552Z,57.37
2022-09-28T00:44:53.536Z,57.62
2022-09-28T00:45:53.622Z,57.62
2022-09-28T00:46:53.580Z,57.88
2022-09-28T00:49:53.557Z,57.72
2022-09-28T00:50:53.544Z,57.83
2022-09-28T00:51:53.594Z,58.18
2022-09-28T00:52:53.566Z,57.62
2022-09-28T00:53:53.574Z,57.51
2022-09-28T00:54:53.582Z,57.79
2022-09-28T00:55:53.575Z,57.67
2022-09-28T00:56:53.607Z,57.78
2022-09-28T00:57:53.595Z,57.78
2022-09-28T00:58:53.587Z,57.82
2022-09-28T00:59:53.587Z,57.82
2022-09-28T01:00:53.724Z,57.44
2022-09-28T01:01:53.720Z,57.25
2022-09-28T01:03:53.576Z,57.42
2022-09-28T01:04:53.630Z,56.90
2022-09-28T01:05:53.587Z,56.90
2022-09-28T01:06:53.613Z,57.23
2022-09-28T01:07:53.620Z,57.23
2022-09-28T01:08:53.616Z,57.24
2022-09-28T01:09:53.591Z,56.85
2022-09-28T01:10:53.615Z,56.76
2022-09-28T01:11:53.605Z,56.64
2022-09-28T01:12:53.630Z,57.11
2022-09-28T01:13:53.622Z,56.99
2022-09-28T01:14:53.659Z,57.24
2022-09-28T01:15:53.679Z,57.24
2022-09-28T01:16:53.638Z,56.63
2022-09-28T01:17:53.629Z,56.63
2022-09-28T01:18:53.648Z,56.64
2022-09-28T01:19:53.622Z,56.80
2022-09-28T01:20:53.656Z,56.64
2022-09-28T01:21:53.633Z,56.21
2022-09-28T01:22:53.646Z,56.21
2022-09-28T01:23:53.629Z,56.53
2022-09-28T01:24:53.636Z,56.59
2022-09-28T01:25:53.664Z,56.04
2022-09-28T01:26:53.671Z,56.62
2022-09-28T01:27:53.655Z,56.62
2022-09-28T01:31:53.709Z,56.88
2022-09-28T01:33:53.674Z,57.08
2022-09-28T01:34:53.677Z,57.08
2022-09-28T01:35:53.680Z,57.21
2022-09-28T01:36:53.655Z,57.21
2022-09-28T01:37:53.691Z,58.20
2022-09-28T01:38:53.673Z,58.20
2022-09-28T01:39:53.677Z,58.03
2022-09-28T01:40:53.779Z,58.33
2022-09-28T01:42:53.713Z,57.68
2022-09-28T01:43:53.696Z,57.68
2022-09-28T01:44:53.710Z,57.13
2022-09-28T01:45:53.763Z,57.13
2022-09-28T01:46:53.688Z,57.18
2022-09-28T01:47:53.694Z,57.03
2022-09-28T01:48:53.703Z,56.84
2022-09-28T01:49:53.717Z,57.33
2022-09-28T01:50:53.716Z,57.33
2022-09-28T01:51:53.713Z,56.57
2022-09-28T01:52:53.717Z,57.53
2022-09-28T01:53:53.702Z,57.58
2022-09-28T01:56:53.786Z,58.36
2022-09-28T01:57:53.707Z,58.36
2022-09-28T01:58:53.724Z,58.77
2022-09-28T01:59:53.736Z,58.90
2022-09-28T02:03:53.725Z,58.73
2022-09-28T02:04:53.752Z,59.04
2022-09-28T02:05:53.741Z,59.04
2022-09-28T02:06:53.740Z,59.10
2022-09-28T02:07:53.748Z,58.92
2022-09-28T02:08:53.764Z,58.91
2022-09-28T02:10:53.765Z,59.04
2022-09-28T02:11:53.744Z,59.13
2022-09-28T02:13:53.773Z,59.70
2022-09-28T02:14:53.781Z,59.70
2022-09-28T02:15:53.812Z,59.70
2022-09-28T02:16:53.775Z,59.90
2022-09-28T02:17:53.775Z,59.87
2022-09-28T02:18:53.792Z,59.56
2022-09-28T02:19:53.791Z,59.83
2022-09-28T02:20:53.785Z,59.83
2022-09-28T02:21:53.799Z,59.65
2022-09-28T02:23:53.771Z,59.93
2022-09-28T02:24:53.796Z,60.21
2022-09-28T02:25:53.788Z,60.33
2022-09-28T02:26:53.783Z,60.33
2022-09-28T02:27:53.834Z,60.09
2022-09-28T02:28:53.813Z,60.09
2022-09-28T02:30:53.804Z,60.27
2022-09-28T02:31:53.904Z,60.48
2022-09-28T02:33:53.829Z,60.67
2022-09-28T02:34:53.839Z,60.74
2022-09-28T02:38:53.828Z,60.95
2022-09-28T02:40:53.889Z,61.03
2022-09-28T02:41:53.854Z,61.52
2022-09-28T02:42:53.855Z,61.15
2022-09-28T02:43:53.846Z,61.58
2022-09-28T02:44:53.855Z,61.85
2022-09-28T02:45:53.896Z,61.75
2022-09-28T02:47:53.851Z,62.05
2022-09-28T02:49:10.456Z,61.65
2022-09-28T02:49:53.857Z,62.34
2022-09-28T02:50:53.840Z,62.34
2022-09-28T02:51:53.843Z,62.38
2022-09-28T02:52:53.852Z,61.95
2022-09-28T02:54:53.881Z,62.35
2022-09-28T02:55:53.872Z,62.24
2022-09-28T02:56:53.876Z,62.91
2022-09-28T02:57:53.920Z,63.02
2022-09-28T02:58:53.887Z,63.34
2022-09-28T02:59:53.859Z,63.34
2022-09-28T03:00:53.973Z,63.79
2022-09-28T03:01:53.957Z,63.79
2022-09-28T03:02:53.894Z,63.66
2022-09-28T03:03:53.876Z,63.58
2022-09-28T03:04:53.909Z,63.42
2022-09-28T03:05:53.893Z,63.42
2022-09-28T03:07:53.917Z,63.44
2022-09-28T03:08:53.913Z,63.44
2022-09-28T03:09:53.891Z,63.42
2022-09-28T03:10:53.958Z,63.39
2022-09-28T03:11:53.918Z,63.39
2022-09-28T03:12:53.906Z,63.29
2022-09-28T03:13:53.906Z,63.29
2022-09-28T03:14:53.904Z,63.08
2022-09-28T03:15:53.949Z,63.17
2022-09-28T03:16:53.919Z,63.25
2022-09-28T03:17:53.916Z,63.43
2022-09-28T03:19:53.933Z,63.48
2022-09-28T03:20:53.976Z,63.48
2022-09-28T03:21:53.947Z,63.49
2022-09-28T03:23:12.708Z,63.56
2022-09-28T03:23:53.933Z,63.45
2022-09-28T03:24:53.921Z,63.85
2022-09-28T03:25:53.953Z,64.20
2022-09-28T03:26:53.930Z,64.20
2022-09-28T03:27:53.959Z,64.35
2022-09-28T03:28:53.942Z,64.35
2022-09-28T03:29:53.938Z,64.49
2022-09-28T03:30:53.956Z,64.21
2022-09-28T03:31:53.969Z,64.04
2022-09-28T03:32:53.940Z,64.11
2022-09-28T03:33:53.949Z,64.15
2022-09-28T03:34:53.958Z,64.31
2022-09-28T03:35:54.001Z,63.76
2022-09-28T03:38:53.953Z,63.69
2022-09-28T03:39:53.996Z,63.84
2022-09-28T03:40:54.102Z,63.60
2022-09-28T03:41:53.985Z,63.60
2022-09-28T03:42:54.001Z,63.61
2022-09-28T03:43:53.990Z,63.52
2022-09-28T03:44:53.995Z,63.52
2022-09-28T03:46:54.000Z,63.50
2022-09-28T03:47:53.998Z,63.50
2022-09-28T03:48:53.997Z,63.79
2022-09-28T03:49:54.037Z,63.79
2022-09-28T03:50:54.014Z,64.03
2022-09-28T03:51:54.001Z,64.05
2022-09-28T03:52:54.009Z,64.42
2022-09-28T03:53:53.995Z,64.46
2022-09-28T03:54:54.031Z,64.57
2022-09-28T03:55:54.016Z,64.57
2022-09-28T03:56:54.022Z,64.22
2022-09-28T03:57:54.017Z,64.22
2022-09-28T03:58:54.029Z,63.63
2022-09-28T04:00:54.064Z,64.43
2022-09-28T04:01:54.096Z,64.43
2022-09-28T04:02:54.037Z,64.49
2022-09-28T04:03:54.034Z,64.20
2022-09-28T04:04:54.048Z,64.63
2022-09-28T04:05:54.053Z,64.83
2022-09-28T04:06:54.048Z,64.83
2022-09-28T04:07:54.065Z,64.58
2022-09-28T04:09:54.029Z,64.51
2022-09-28T04:10:54.051Z,64.58
2022-09-28T04:12:03.794Z,64.54
2022-09-28T04:12:54.073Z,64.52
2022-09-28T04:13:54.065Z,64.52
2022-09-28T04:14:54.078Z,64.33
2022-09-28T04:15:54.068Z,64.43
2022-09-28T04:16:54.181Z,64.40
2022-09-28T04:17:54.083Z,64.32
2022-09-28T04:18:54.071Z,64.32
2022-09-28T04:19:54.082Z,64.16
2022-09-28T04:20:54.085Z,64.09
2022-09-28T04:21:54.077Z,64.32
2022-09-28T04:22:54.104Z,64.06
2022-09-28T04:23:54.085Z,64.06
2022-09-28T04:24:54.098Z,64.01
2022-09-28T04:26:54.104Z,64.08
2022-09-28T04:28:54.092Z,64.04
2022-09-28T04:29:54.117Z,64.26
2022-09-28T04:30:54.132Z,64.45
2022-09-28T04:31:54.156Z,64.45
2022-09-28T04:32:54.114Z,64.62
2022-09-28T04:33:54.105Z,64.57
2022-09-28T04:34:54.119Z,64.91
2022-09-28T04:35:54.123Z,64.91
2022-09-28T04:36:54.137Z,64.93
2022-09-28T04:37:54.131Z,65.06
2022-09-28T04:38:54.136Z,65.06
2022-09-28T04:39:54.120Z,64.80
2022-09-28T04:40:54.190Z,64.69
2022-09-28T04:41:54.123Z,64.88
2022-09-28T04:42:54.149Z,64.84
2022-09-28T04:43:54.141Z,65.08
2022-09-28T04:44:54.144Z,65.14
2022-09-28T04:45:54.230Z,65.64
2022-09-28T04:46:54.179Z,65.91
2022-09-28T04:47:54.163Z,65.91
2022-09-28T04:48:54.144Z,65.93
2022-09-28T04:51:54.174Z,65.99
2022-09-28T04:52:54.186Z,66.18
2022-09-28T04:53:54.183Z,66.60
2022-09-28T04:54:54.164Z,66.66
2022-09-28T04:55:54.165Z,66.69
2022-09-28T04:56:54.172Z,66.69
2022-09-28T04:57:54.165Z,66.72
2022-09-28T04:58:54.172Z,66.30
2022-09-28T04:59:54.176Z,66.55
2022-09-28T05:00:54.244Z,66.33
2022-09-28T05:01:54.309Z,66.11
2022-09-28T05:02:54.186Z,66.08
2022-09-28T05:03:54.185Z,66.08
2022-09-28T05:04:54.210Z,65.84
2022-09-28T05:05:54.196Z,65.78
2022-09-28T05:07:54.205Z,65.69
2022-09-28T05:08:54.200Z,65.71
2022-09-28T05:09:54.207Z,65.65
2022-09-28T05:10:54.199Z,65.42
2022-09-28T05:11:54.218Z,65.49
2022-09-28T05:13:54.201Z,64.90
2022-09-28T05:14:54.213Z,64.77
2022-09-28T05:15:57.567Z,64.95
2022-09-28T05:16:54.265Z,64.95
2022-09-28T05:17:54.218Z,65.05
2022-09-28T05:18:54.228Z,65.44
2022-09-28T05:20:54.224Z,64.99
2022-09-28T05:21:54.244Z,65.89
2022-09-28T05:22:54.239Z,65.89
2022-09-28T05:23:54.244Z,66.62
2022-09-28T05:24:54.237Z,66.62
2022-09-28T05:25:54.237Z,67.16
2022-09-28T05:26:54.242Z,67.18
2022-09-28T05:27:54.260Z,66.58
2022-09-28T05:28:54.271Z,66.58
2022-09-28T05:29:54.252Z,67.06
2022-09-28T05:30:54.253Z,67.87
2022-09-28T05:31:54.318Z,68.30
2022-09-28T05:32:54.260Z,68.34
2022-09-28T05:33:54.268Z,68.39
2022-09-28T05:34:54.255Z,68.29
2022-09-28T05:35:57.879Z,68.13
2022-09-28T05:36:54.256Z,67.69
2022-09-28T05:37:54.273Z,67.56
2022-09-28T05:38:54.286Z,67.09
2022-09-28T05:39:54.306Z,66.75
2022-09-28T05:40:54.343Z,66.75
2022-09-28T05:41:54.263Z,66.34
2022-09-28T05:42:54.299Z,67.52
2022-09-28T05:43:54.284Z,67.52
2022-09-28T05:44:54.303Z,66.80
2022-09-28T05:45:55.785Z,66.80
2022-09-28T05:46:54.288Z,68.00
2022-09-28T05:47:54.311Z,68.00
2022-09-28T05:48:54.321Z,67.69
2022-09-28T05:49:54.322Z,67.69
2022-09-28T05:50:54.320Z,67.26
2022-09-28T05:51:54.292Z,67.18
2022-09-28T05:52:54.295Z,66.93
2022-09-28T05:53:54.309Z,66.36
2022-09-28T05:54:54.339Z,66.45
2022-09-28T05:56:54.345Z,66.69
2022-09-28T05:57:54.329Z,66.55
2022-09-28T05:58:54.320Z,66.55
2022-09-28T05:59:54.332Z,66.11
2022-09-28T06:00:54.384Z,66.34
2022-09-28T06:01:54.328Z,66.34
2022-09-28T06:02:54.312Z,66.94
2022-09-28T06:03:54.329Z,66.82
2022-09-28T06:04:54.365Z,66.65
2022-09-28T06:05:54.345Z,66.65
2022-09-28T06:06:54.344Z,66.13
2022-09-28T06:07:54.354Z,66.12
2022-09-28T06:08:54.362Z,66.56
2022-09-28T06:09:54.361Z,66.58
2022-09-28T06:10:54.359Z,66.54
2022-09-28T06:12:54.361Z,66.37
2022-09-28T06:13:54.351Z,66.47
2022-09-28T06:14:54.355Z,66.47
2022-09-28T06:16:54.456Z,66.43
2022-09-28T06:18:54.365Z,66.55
2022-09-28T06:19:54.384Z,66.55
2022-09-28T06:21:54.382Z,66.72
2022-09-28T06:22:54.398Z,66.89
2022-09-28T06:23:54.386Z,66.91
2022-09-28T06:24:54.391Z,66.69
2022-09-28T06:25:54.372Z,66.44
2022-09-28T06:26:54.401Z,66.49
2022-09-28T06:27:54.379Z,66.45
2022-09-28T06:29:54.408Z,66.54
2022-09-28T06:30:54.448Z,66.70
2022-09-28T06:31:54.433Z,66.78
2022-09-28T06:32:54.409Z,66.78
2022-09-28T06:33:54.464Z,67.03
2022-09-28T06:34:56.424Z,67.03
2022-09-28T06:35:54.396Z,67.21
2022-09-28T06:36:54.418Z,67.27
2022-09-28T06:37:54.416Z,67.41
2022-09-28T06:38:54.403Z,67.54
2022-09-28T06:39:54.470Z,67.61
2022-09-28T06:40:54.514Z,67.61
2022-09-28T06:41:54.415Z,67.57
2022-09-28T06:42:54.432Z,67.48
2022-09-28T06:43:54.454Z,67.57
2022-09-28T06:44:54.444Z,67.62
2022-09-28T06:45:54.561Z,67.77
2022-09-28T06:47:54.477Z,67.86
2022-09-28T06:48:54.454Z,67.86
2022-09-28T06:49:54.454Z,67.84
2022-09-28T06:50:54.465Z,67.88
2022-09-28T06:51:54.456Z,67.78
2022-09-28T06:52:54.469Z,67.65
2022-09-28T06:53:54.469Z,67.58
2022-09-28T06:54:54.511Z,67.41
2022-09-28T06:55:54.486Z,67.36
2022-09-28T06:56:54.480Z,67.29
2022-09-28T06:57:54.463Z,67.29
2022-09-28T06:58:54.479Z,67.01
2022-09-28T06:59:54.501Z,67.01
2022-09-28T07:00:54.554Z,67.00
2022-09-28T07:02:54.519Z,66.56
2022-09-28T07:03:55.801Z,66.66
2022-09-28T07:04:54.510Z,66.72
2022-09-28T07:05:54.480Z,66.72
2022-09-28T07:07:54.516Z,67.13
2022-09-28T07:09:02.406Z,66.80
2022-09-28T07:09:55.326Z,66.92
2022-09-28T07:10:54.524Z,66.99
2022-09-28T07:11:54.498Z,66.99
2022-09-28T07:12:54.573Z,66.97
2022-09-28T07:13:54.521Z,67.04
2022-09-28T07:14:54.935Z,67.01
2022-09-28T07:15:54.554Z,67.24
2022-09-28T07:17:10.003Z,67.24
2022-09-28T07:18:00.531Z,67.25
2022-09-28T07:18:54.515Z,67.25
2022-09-28T07:19:54.528Z,67.26
2022-09-28T07:20:54.801Z,66.87
2022-09-28T07:22:04.060Z,67.17
2022-09-28T07:22:54.555Z,67.22
2022-09-28T07:23:54.617Z,67.22
2022-09-28T07:24:54.548Z,67.11
2022-09-28T07:26:54.596Z,67.17
2022-09-28T07:27:54.528Z,67.17
2022-09-28T07:28:54.549Z,67.08
2022-09-28T07:29:54.560Z,66.87
2022-09-28T07:30:54.603Z,66.83
2022-09-28T07:31:54.561Z,66.77
2022-09-28T07:32:54.543Z,66.77
2022-09-28T07:33:54.567Z,66.74
2022-09-28T07:35:54.562Z,66.84
2022-09-28T07:37:54.579Z,66.94
2022-09-28T07:38:54.601Z,66.88
2022-09-28T07:39:54.581Z,66.98
2022-09-28T07:40:54.755Z,66.98
2022-09-28T07:41:59.636Z,67.10
2022-09-28T07:42:54.574Z,67.10
2022-09-28T07:44:54.592Z,67.33
2022-09-28T07:45:54.667Z,67.49
2022-09-28T07:46:54.593Z,67.49
2022-09-28T07:47:54.614Z,67.62
2022-09-28T07:48:54.592Z,67.52
2022-09-28T07:49:54.598Z,67.52
2022-09-28T07:50:54.602Z,68.03
2022-09-28T07:51:54.600Z,68.03
2022-09-28T07:52:54.617Z,67.78
2022-09-28T07:53:54.612Z,67.33
2022-09-28T07:54:54.628Z,67.26
2022-09-28T07:55:54.615Z,67.19
2022-09-28T07:56:54.637Z,67.19
2022-09-28T07:57:54.616Z,67.26
2022-09-28T07:58:54.624Z,67.29
2022-09-28T07:59:54.656Z,66.89
2022-09-28T08:01:54.742Z,67.10
2022-09-28T08:02:54.639Z,67.18
2022-09-28T08:04:54.653Z,67.28
2022-09-28T08:09:54.656Z,66.79
2022-09-28T08:12:54.670Z,67.16
2022-09-28T08:14:54.675Z,67.28
2022-09-28T08:16:54.651Z,67.19
2022-09-28T08:17:56.120Z,67.19
2022-09-28T08:19:54.644Z,67.06
2022-09-28T08:20:54.659Z,67.27
2022-09-28T08:21:54.655Z,67.30
2022-09-28T08:22:54.787Z,67.19
2022-09-28T08:23:54.658Z,67.43
2022-09-28T08:24:54.686Z,66.98
2022-09-28T08:25:54.729Z,66.98
2022-09-28T08:27:54.690Z,66.64
2022-09-28T08:29:03.736Z,67.17
2022-09-28T08:29:14.349Z,67.17
2022-09-28T08:29:54.693Z,67.17
2022-09-28T08:30:54.767Z,67.31
2022-09-28T08:31:57.258Z,67.31
2022-09-28T08:32:54.696Z,67.41
2022-09-28T08:33:54.692Z,67.35
2022-09-28T08:34:54.701Z,67.34
2022-09-28T08:35:54.721Z,67.39
2022-09-28T08:36:54.716Z,67.42
2022-09-28T08:37:55.662Z,67.39
2022-09-28T08:38:54.728Z,67.33
2022-09-28T08:39:54.721Z,67.33
2022-09-28T08:40:54.908Z,67.37
2022-09-28T08:41:54.739Z,67.28
2022-09-28T08:42:54.732Z,67.23
2022-09-28T08:43:54.738Z,66.94
2022-09-28T08:44:54.755Z,67.18
2022-09-28T08:46:54.754Z,67.33
2022-09-28T08:47:54.734Z,67.31
2022-09-28T08:49:13.046Z,67.35
2022-09-28T08:50:54.737Z,67.49
2022-09-28T08:51:54.756Z,67.44
2022-09-28T08:52:54.756Z,67.18
2022-09-28T08:53:54.750Z,67.03
2022-09-28T08:55:54.754Z,67.00
2022-09-28T08:56:54.781Z,67.10
2022-09-28T08:57:54.762Z,66.87
2022-09-28T08:58:54.786Z,66.77
2022-09-28T08:59:54.797Z,66.77
2022-09-28T09:00:54.861Z,66.89
2022-09-28T09:01:57.416Z,66.87
2022-09-28T09:02:54.843Z,66.87
2022-09-28T09:03:54.793Z,66.34
2022-09-28T09:04:54.784Z,66.34
2022-09-28T09:05:54.902Z,65.98
2022-09-28T09:06:54.807Z,65.94
2022-09-28T09:07:54.796Z,66.22
2022-09-28T09:08:54.803Z,66.61
2022-09-28T09:09:54.802Z,66.75
2022-09-28T09:10:54.804Z,66.52
2022-09-28T09:13:54.843Z,66.03
2022-09-28T09:14:54.795Z,66.07
2022-09-28T09:16:56.046Z,66.04
2022-09-28T09:17:54.812Z,65.99
2022-09-28T09:19:54.839Z,65.98
2022-09-28T09:21:54.831Z,65.87
2022-09-28T09:22:54.827Z,65.99
2022-09-28T09:23:54.816Z,66.22
2022-09-28T09:25:54.842Z,66.21
2022-09-28T09:26:54.815Z,66.19
2022-09-28T09:28:54.844Z,66.55
2022-09-28T09:29:54.901Z,66.48
2022-09-28T09:30:54.878Z,66.52
2022-09-28T09:31:54.829Z,66.52
2022-09-28T09:32:54.868Z,66.81
2022-09-28T09:33:54.866Z,66.85
2022-09-28T09:34:54.855Z,66.52
2022-09-28T09:35:54.845Z,66.54
2022-09-28T09:36:54.876Z,66.35
2022-09-28T09:37:58.352Z,66.57
2022-09-28T09:38:54.879Z,66.65
2022-09-28T09:39:54.862Z,66.66
2022-09-28T09:40:55.050Z,66.37
2022-09-28T09:42:54.876Z,66.60
2022-09-28T09:43:54.869Z,66.62
2022-09-28T09:44:54.881Z,66.66
2022-09-28T09:45:55.028Z,66.66
2022-09-28T09:46:54.883Z,66.65
2022-09-28T09:47:54.888Z,66.56
2022-09-28T09:48:54.907Z,66.54
2022-09-28T09:49:54.910Z,66.39
2022-09-28T09:50:54.907Z,66.39
2022-09-28T09:51:54.890Z,66.37
2022-09-28T09:52:54.912Z,66.35
2022-09-28T09:53:54.907Z,66.31
2022-09-28T09:54:54.904Z,66.31
2022-09-28T09:55:54.915Z,66.09
2022-09-28T09:56:54.937Z,66.06
2022-09-28T09:57:54.911Z,66.10
2022-09-28T09:58:54.899Z,66.23
2022-09-28T09:59:54.916Z,66.07
2022-09-28T10:03:54.953Z,65.31
2022-09-28T10:04:54.942Z,65.31
2022-09-28T10:05:54.955Z,64.89
2022-09-28T10:06:54.944Z,64.89
2022-09-28T10:07:54.956Z,64.94
2022-09-28T10:08:54.961Z,65.16
2022-09-28T10:09:54.959Z,65.20
2022-09-28T10:10:54.940Z,65.20
2022-09-28T10:11:54.940Z,64.43
2022-09-28T10:12:54.959Z,64.86
2022-09-28T10:14:54.956Z,64.98
2022-09-28T10:15:54.992Z,65.02
2022-09-28T10:16:54.981Z,64.78
2022-09-28T10:17:54.962Z,64.89
2022-09-28T10:18:54.947Z,64.97
2022-09-28T10:19:54.962Z,64.84
2022-09-28T10:20:54.960Z,64.93
2022-09-28T10:21:54.976Z,65.07
2022-09-28T10:22:54.990Z,65.05
2022-09-28T10:23:54.969Z,65.26
2022-09-28T10:24:54.987Z,65.21
2022-09-28T10:26:54.979Z,65.07
2022-09-28T10:28:55.000Z,64.81
2022-09-28T10:30:55.226Z,63.93
2022-09-28T10:31:54.975Z,64.01
2022-09-28T10:32:54.999Z,64.03
2022-09-28T10:33:54.989Z,64.00
2022-09-28T10:34:55.019Z,64.13
2022-09-28T10:35:55.019Z,64.13
2022-09-28T10:37:55.016Z,63.79
2022-09-28T10:38:55.020Z,63.74
2022-09-28T10:39:55.016Z,63.83
2022-09-28T10:40:55.160Z,63.81
2022-09-28T10:41:55.037Z,63.87
2022-09-28T10:42:55.029Z,63.93
2022-09-28T10:46:55.031Z,63.56
2022-09-28T10:47:55.056Z,63.90
2022-09-28T10:48:55.047Z,63.90
2022-09-28T10:49:55.057Z,63.46
2022-09-28T10:50:55.070Z,63.38
2022-09-28T10:51:55.051Z,63.38
2022-09-28T10:52:55.047Z,63.54
2022-09-28T10:53:55.055Z,63.54
2022-09-28T10:54:55.067Z,63.60
2022-09-28T10:55:55.050Z,63.12
2022-09-28T10:56:55.063Z,63.16
2022-09-28T10:57:55.064Z,63.16
2022-09-28T10:58:55.065Z,63.67
2022-09-28T10:59:55.066Z,63.50
2022-09-28T11:00:55.116Z,63.57
2022-09-28T11:01:55.095Z,63.57
2022-09-28T11:02:55.198Z,63.35
2022-09-28T11:03:55.081Z,62.86
2022-09-28T11:05:55.067Z,62.13
2022-09-28T11:07:55.082Z,62.42
2022-09-28T11:08:55.097Z,62.35
2022-09-28T11:09:55.099Z,62.47
2022-09-28T11:10:55.099Z,62.13
2022-09-28T11:12:55.145Z,61.85
2022-09-28T11:13:55.089Z,61.51
2022-09-28T11:15:55.125Z,62.14
2022-09-28T11:16:55.126Z,62.00
2022-09-28T11:17:55.117Z,62.53
2022-09-28T11:18:55.130Z,62.19
2022-09-28T11:19:55.111Z,62.19
2022-09-28T11:20:55.139Z,61.89
2022-09-28T11:21:55.129Z,61.82
2022-09-28T11:22:55.152Z,61.82
2022-09-28T11:23:55.145Z,62.13
2022-09-28T11:25:55.115Z,62.56
2022-09-28T11:26:55.139Z,62.02
2022-09-28T11:27:55.182Z,61.99
2022-09-28T11:28:55.141Z,61.99
2022-09-28T11:29:55.143Z,61.91
2022-09-28T11:30:55.227Z,61.70
2022-09-28T11:31:55.170Z,61.99
2022-09-28T11:34:59.661Z,62.16
2022-09-28T11:36:58.418Z,62.01
2022-09-28T11:37:55.168Z,62.30
2022-09-28T11:39:55.183Z,62.43
2022-09-28T11:40:55.277Z,62.66
2022-09-28T11:41:55.184Z,62.71
2022-09-28T11:42:55.278Z,62.88
2022-09-28T11:43:55.182Z,62.88
2022-09-28T11:44:55.210Z,63.03
2022-09-28T11:45:55.250Z,63.04
2022-09-28T11:46:55.178Z,63.04
2022-09-28T11:47:55.200Z,62.72
2022-09-28T11:48:55.185Z,62.90
2022-09-28T11:49:55.206Z,62.61
2022-09-28T11:52:55.202Z,63.17
2022-09-28T11:53:55.202Z,63.33
2022-09-28T11:54:55.209Z,63.19
2022-09-28T11:55:55.226Z,63.64
2022-09-28T11:56:55.197Z,63.45
2022-09-28T12:02:55.366Z,62.82
2022-09-28T12:03:55.212Z,62.48
2022-09-28T12:06:55.254Z,62.79
2022-09-28T12:07:55.254Z,62.56
2022-09-28T12:10:55.236Z,62.51
2022-09-28T12:11:55.256Z,62.20
2022-09-28T12:13:55.241Z,62.52
2022-09-28T12:16:22.990Z,62.63
2022-09-28T12:18:55.342Z,62.56
2022-09-28T12:19:55.278Z,62.56
2022-09-28T12:21:55.267Z,62.89
2022-09-28T12:22:55.288Z,62.46
2022-09-28T12:23:55.291Z,62.46
2022-09-28T12:24:55.314Z,62.52
2022-09-28T12:25:55.312Z,62.62
2022-09-28T12:26:55.292Z,62.50
2022-09-28T12:27:55.323Z,62.40
2022-09-28T12:28:55.303Z,62.83
2022-09-28T12:30:55.456Z,62.28
2022-09-28T12:31:55.321Z,62.39
2022-09-28T12:32:55.325Z,61.81
2022-09-28T12:33:55.325Z,61.75
2022-09-28T12:35:55.334Z,62.08
2022-09-28T12:36:55.311Z,62.08
2022-09-28T12:37:55.360Z,62.11
2022-09-28T12:39:17.703Z,62.16
2022-09-28T12:39:57.865Z,61.97
2022-09-28T12:40:55.587Z,61.68
2022-09-28T12:41:55.331Z,62.01
2022-09-28T12:42:55.365Z,61.93
2022-09-28T12:46:11.022Z,62.51
2022-09-28T12:46:55.486Z,62.11
2022-09-28T12:47:55.350Z,62.11
2022-09-28T12:51:55.372Z,61.94
2022-09-28T12:52:58.105Z,61.94
2022-09-28T12:53:55.365Z,61.82
2022-09-28T12:54:55.358Z,61.85
2022-09-28T12:55:55.360Z,61.85
2022-09-28T12:56:55.385Z,62.11
2022-09-28T12:57:55.378Z,62.38
2022-09-28T12:58:55.383Z,62.60
2022-09-28T12:59:55.362Z,62.70
2022-09-28T13:00:55.374Z,62.70
2022-09-28T13:01:55.444Z,63.05
2022-09-28T13:02:55.478Z,62.94
2022-09-28T13:03:55.371Z,62.94
2022-09-28T13:04:55.391Z,62.21
2022-09-28T13:06:55.399Z,61.99
2022-09-28T13:07:55.388Z,61.99
2022-09-28T13:08:55.381Z,61.95
2022-09-28T13:09:55.390Z,61.95
2022-09-28T13:10:55.401Z,61.99
2022-09-28T13:11:55.415Z,61.63
2022-09-28T13:12:55.409Z,61.93
2022-09-28T13:14:55.412Z,62.11
2022-09-28T13:17:55.411Z,61.46
2022-09-28T13:18:55.422Z,61.17
2022-09-28T13:20:55.444Z,61.24
2022-09-28T13:21:55.400Z,61.42
2022-09-28T13:24:08.734Z,61.29
2022-09-28T13:24:55.443Z,61.37
2022-09-28T13:25:55.444Z,61.46
2022-09-28T13:26:55.489Z,61.46
2022-09-28T13:27:55.439Z,61.35
2022-09-28T13:28:55.432Z,61.19
2022-09-28T13:30:55.571Z,61.82
2022-09-28T13:31:55.442Z,61.82
2022-09-28T13:32:55.476Z,61.55
2022-09-28T13:33:55.455Z,61.55
2022-09-28T13:34:55.469Z,61.28
2022-09-28T13:35:55.464Z,61.28
2022-09-28T13:36:55.459Z,61.26
2022-09-28T13:37:55.475Z,61.42
2022-09-28T13:39:55.486Z,61.37
2022-09-28T13:40:55.494Z,61.37
2022-09-28T13:42:55.517Z,61.75
2022-09-28T13:43:55.488Z,61.75
2022-09-28T13:44:55.492Z,61.84
2022-09-28T13:45:55.581Z,62.28
2022-09-28T13:47:55.498Z,62.35
2022-09-28T13:48:55.477Z,62.35
2022-09-28T13:49:55.517Z,62.16
2022-09-28T13:50:55.495Z,62.02
2022-09-28T13:51:55.504Z,61.66
2022-09-28T13:52:55.493Z,61.90
2022-09-28T13:53:55.523Z,62.16
2022-09-28T13:55:55.524Z,61.77
2022-09-28T13:56:55.524Z,61.53
2022-09-28T13:57:55.524Z,61.53
2022-09-28T13:58:55.513Z,61.71
2022-09-28T13:59:55.529Z,61.90
2022-09-28T14:00:55.547Z,62.27
2022-09-28T14:02:55.583Z,62.60
2022-09-28T14:03:55.555Z,62.43
2022-09-28T14:04:55.533Z,62.43
2022-09-28T14:05:55.573Z,62.36
2022-09-28T14:06:55.868Z,62.36
2022-09-28T14:07:57.198Z,62.25
2022-09-28T14:08:55.535Z,63.17
2022-09-28T14:09:55.548Z,62.85
2022-09-28T14:10:55.570Z,62.85
2022-09-28T14:11:55.551Z,62.34
2022-09-28T14:12:55.566Z,62.68
2022-09-28T14:14:55.591Z,62.92
2022-09-28T14:15:55.615Z,62.75
2022-09-28T14:17:55.549Z,62.88
2022-09-28T14:18:55.594Z,62.30
2022-09-28T14:19:55.578Z,62.37
2022-09-28T14:20:55.574Z,62.55
2022-09-28T14:21:55.582Z,62.48
2022-09-28T14:22:55.566Z,62.48
2022-09-28T14:23:59.081Z,61.81
2022-09-28T14:24:55.639Z,61.81
2022-09-28T14:26:55.614Z,62.61
2022-09-28T14:27:55.575Z,62.61
2022-09-28T14:28:55.626Z,61.27
2022-09-28T14:29:55.591Z,61.27
2022-09-28T14:30:55.663Z,61.10
2022-09-28T14:31:55.612Z,60.33
2022-09-28T14:32:55.617Z,60.56
2022-09-28T14:33:55.606Z,60.56
2022-09-28T14:34:55.609Z,60.63
2022-09-28T14:35:55.598Z,61.60
2022-09-28T14:37:55.626Z,62.25
2022-09-28T14:38:55.606Z,62.25
2022-09-28T14:40:55.679Z,61.89
2022-09-28T14:42:55.636Z,61.91
2022-09-28T14:43:55.625Z,61.97
2022-09-28T14:44:55.632Z,61.77
2022-09-28T14:45:55.663Z,62.02
2022-09-28T14:46:55.626Z,62.34
2022-09-28T14:47:55.643Z,62.38
2022-09-28T14:48:55.640Z,62.38
2022-09-28T14:49:55.654Z,62.51
2022-09-28T14:50:55.661Z,62.58
2022-09-28T14:52:55.661Z,62.75
2022-09-28T14:53:55.671Z,62.75
2022-09-28T14:57:55.695Z,62.47
2022-09-28T14:58:55.669Z,62.47
2022-09-28T14:59:55.693Z,62.57
2022-09-28T15:02:55.680Z,63.44
2022-09-28T15:04:55.772Z,62.92
2022-09-28T15:05:55.693Z,62.44
2022-09-28T15:06:55.705Z,62.36
2022-09-28T15:07:55.716Z,62.48
2022-09-28T15:08:55.695Z,62.45
2022-09-28T15:09:55.695Z,62.36
2022-09-28T15:10:55.700Z,62.36
2022-09-28T15:11:55.684Z,62.28
2022-09-28T15:13:55.718Z,62.72
2022-09-28T15:14:55.694Z,62.73
2022-09-28T15:15:55.755Z,63.40
2022-09-28T15:16:55.716Z,63.26
2022-09-28T15:17:55.717Z,63.49
2022-09-28T15:18:55.739Z,63.49
2022-09-28T15:19:55.726Z,62.78
2022-09-28T15:20:55.711Z,62.78